Time;durP1;ratioP1;P1;durP2;ratioP2;P2;SDS_P1;SDS_P2;PMS_P1;PMS_P2;Temp;Humidity;BMP_temperature;BMP_pressure;BME280_temperature;BME280_humidity;BME280_pressure;Samples;Min_cycle;Max_cycle;Signal;HPM_P1;HPM_P2
2022/09/28 00:01:22;;;;;;;12.30;11.80;;;8.80;99.90;;;;;;5054992;28;20225;-80
2022/09/28 00:03:50;;;;;;;12.40;11.83;;;8.80;99.90;;;;;;5036941;28;20185;-79
2022/09/28 00:06:23;;;;;;;13.80;13.03;;;8.80;99.90;;;;;;5036581;28;20336;-79
2022/09/28 00:08:49;;;;;;;13.67;13.07;;;8.80;99.90;;;;;;5054359;28;20347;-79
2022/09/28 00:11:17;;;;;;;16.03;15.30;;;8.80;99.90;;;;;;5054401;28;20214;-79
2022/09/28 00:13:47;;;;;;;18.37;17.50;;;8.80;99.90;;;;;;5054120;28;20185;-79
2022/09/28 00:16:16;;;;;;;17.90;17.00;;;8.80;99.90;;;;;;5053796;28;20178;-79
2022/09/28 00:19:44;;;;;;;13.30;12.60;;;8.80;99.90;;;;;;5102715;27;20590;-79
2022/09/28 00:22:10;;;;;;;20.33;19.23;;;8.80;99.90;;;;;;5069353;28;20182;-79
2022/09/28 00:24:36;;;;;;;13.03;12.33;;;8.80;99.90;;;;;;5070131;28;20307;-79
2022/09/28 00:27:03;;;;;;;13.87;13.17;;;8.70;99.90;;;;;;5068639;28;20185;-79
2022/09/28 00:29:31;;;;;;;11.37;10.83;;;8.70;99.90;;;;;;5051110;28;20248;-79
2022/09/28 00:32:01;;;;;;;14.53;13.83;;;8.70;99.90;;;;;;5049504;28;20461;-80
2022/09/28 00:34:31;;;;;;;21.23;19.53;;;8.70;99.90;;;;;;5050447;28;20186;-80
2022/09/28 00:36:58;;;;;;;13.73;13.10;;;8.70;99.90;;;;;;5049636;28;20786;-79
2022/09/28 00:39:25;;;;;;;19.83;18.93;;;8.70;99.90;;;;;;5050376;28;20225;-79
2022/09/28 00:41:53;;;;;;;25.87;24.57;;;8.70;99.90;;;;;;5050911;28;20179;-79
2022/09/28 00:44:24;;;;;;;24.93;23.63;;;8.60;99.90;;;;;;5054483;28;20180;-79
2022/09/28 00:47:00;;;;;;;39.83;37.90;;;8.60;99.90;;;;;;5051605;28;20178;-80
2022/09/28 00:50:09;;;;;;;41.50;39.40;;;8.60;99.90;;;;;;5054480;28;20206;-78
2022/09/28 00:52:40;;;;;;;25.03;23.73;;;8.60;99.90;;;;;;5046006;28;20194;-80
2022/09/28 00:55:09;;;;;;;39.73;37.73;;;8.60;99.90;;;;;;5049630;28;20186;-79
2022/09/28 00:57:38;;;;;;;44.80;42.57;;;8.60;99.90;;;;;;5048713;28;20212;-79
2022/09/28 01:00:05;;;;;;;54.67;52.07;;;8.60;99.90;;;;;;5050716;28;20206;-79
2022/09/28 01:02:31;;;;;;;54.77;52.13;;;8.60;99.90;;;;;;5051190;28;20186;-79
2022/09/28 01:04:59;;;;;;;59.43;56.53;;;8.60;99.90;;;;;;5051004;28;20175;-80
2022/09/28 01:07:25;;;;;;;62.87;59.73;;;8.60;99.90;;;;;;5031164;28;20195;-79
2022/09/28 01:09:53;;;;;;;51.23;48.77;;;8.60;99.90;;;;;;5058952;28;20179;-80
2022/09/28 01:12:19;;;;;;;62.70;59.67;;;8.60;99.90;;;;;;5052999;28;20182;-80
2022/09/28 01:14:46;;;;;;;28.37;26.97;;;8.60;99.90;;;;;;5066704;28;20196;-79
2022/09/28 01:17:25;;;;;;;65.37;62.03;;;8.70;99.90;;;;;;5051888;28;20189;-80
2022/09/28 01:20:04;;;;;;;32.77;31.13;;;8.70;99.90;;;;;;5052677;28;20190;-80
2022/09/28 01:22:33;;;;;;;13.20;12.60;;;8.60;99.90;;;;;;5052899;28;20269;-80
2022/09/28 01:25:15;;;;;;;13.33;12.60;;;8.70;99.90;;;;;;5051169;28;20277;-80
2022/09/28 01:27:43;;;;;;;41.90;39.77;;;8.70;99.90;;;;;;5049166;28;20202;-80
2022/09/28 01:30:15;;;;;;;51.13;48.67;;;8.70;99.90;;;;;;5050874;28;20194;-80
2022/09/28 01:32:54;;;;;;;52.77;50.13;;;8.70;99.90;;;;;;5044433;28;20309;-79
2022/09/28 01:35:34;;;;;;;48.00;45.63;;;8.70;99.90;;;;;;5037374;28;20187;-80
2022/09/28 01:38:29;;;;;;;51.17;48.43;;;8.70;99.90;;;;;;5034094;28;20226;-79
2022/09/28 01:40:58;;;;;;;50.10;47.70;;;8.70;99.90;;;;;;5033683;28;20742;-79
2022/09/28 01:43:29;;;;;;;57.63;54.53;;;8.80;99.90;;;;;;5035973;28;20175;-79
2022/09/28 01:46:09;;;;;;;58.90;56.00;;;8.80;99.90;;;;;;5034308;28;20202;-79
2022/09/28 01:48:43;;;;;;;40.20;38.00;;;8.80;99.90;;;;;;5034179;28;20600;-79
2022/09/28 01:51:23;;;;;;;33.23;31.70;;;8.70;99.90;;;;;;5036535;28;20179;-79
2022/09/28 01:53:54;;;;;;;32.30;30.60;;;8.70;99.90;;;;;;5035143;28;20273;-79
2022/09/28 01:56:26;;;;;;;23.23;22.07;;;8.70;99.90;;;;;;5035826;28;20236;-79
2022/09/28 01:59:05;;;;;;;16.17;15.40;;;8.70;99.90;;;;;;5035145;28;20220;-79
2022/09/28 02:01:39;;;;;;;13.20;12.60;;;8.70;99.90;;;;;;5035188;28;20651;-79
2022/09/28 02:04:12;;;;;;;10.23;9.73;;;8.70;99.90;;;;;;5032694;28;20269;-79
2022/09/28 02:06:56;;;;;;;10.03;9.50;;;8.70;99.90;;;;;;5034276;28;20408;-79
2022/09/28 02:09:32;;;;;;;7.83;7.43;;;8.60;99.90;;;;;;5034120;28;20687;-79
2022/09/28 02:12:02;;;;;;;14.57;13.90;;;8.70;99.90;;;;;;5032998;28;20298;-79
2022/09/28 02:14:29;;;;;;;31.77;30.17;;;8.70;99.90;;;;;;5034150;28;20184;-78
2022/09/28 02:16:56;;;;;;;33.30;31.37;;;8.70;99.90;;;;;;5034515;28;20179;-79
2022/09/28 02:19:25;;;;;;;14.60;13.60;;;8.60;99.90;;;;;;5034526;28;20222;-79
2022/09/28 02:22:22;;;;;;;14.23;13.57;;;8.60;99.90;;;;;;5035177;28;20175;-79
2022/09/28 02:25:10;;;;;;;16.93;16.13;;;8.70;99.90;;;;;;5017020;28;20192;-80
2022/09/28 02:27:44;;;;;;;19.90;18.83;;;8.70;99.90;;;;;;5015093;28;20211;-79
2022/09/28 02:30:10;;;;;;;26.70;25.43;;;8.70;99.90;;;;;;5014729;28;20179;-79
2022/09/28 02:32:41;;;;;;;18.50;17.63;;;8.70;99.90;;;;;;5026790;28;20187;-80
2022/09/28 02:35:10;;;;;;;21.57;20.57;;;8.70;99.90;;;;;;5039710;28;20187;-80
2022/09/28 02:37:38;;;;;;;19.93;18.97;;;8.70;99.90;;;;;;5030339;28;20679;-79
2022/09/28 02:40:16;;;;;;;26.20;24.87;;;8.80;99.90;;;;;;5040473;28;20184;-78
2022/09/28 02:42:52;;;;;;;24.97;23.67;;;8.80;99.90;;;;;;5038365;28;20175;-79
2022/09/28 02:45:27;;;;;;;27.67;26.33;;;8.80;99.90;;;;;;5036804;28;20236;-79
2022/09/28 02:48:29;;;;;;;26.77;25.27;;;8.80;99.90;;;;;;5035099;28;20813;-79
2022/09/28 02:51:33;;;;;;;32.47;30.83;;;8.80;99.90;;;;;;5035742;28;20190;-79
2022/09/28 02:54:12;;;;;;;27.43;26.13;;;8.80;99.90;;;;;;5034664;28;20266;-79
2022/09/28 02:57:16;;;;;;;28.70;27.33;;;8.80;99.90;;;;;;5033779;28;20564;-79
2022/09/28 03:00:10;;;;;;;35.67;33.90;;;8.80;99.90;;;;;;5033378;28;20210;-78
2022/09/28 03:03:09;;;;;;;47.67;45.17;;;8.90;99.90;;;;;;5034398;28;20183;-78
2022/09/28 03:06:06;;;;;;;40.77;38.67;;;8.90;99.90;;;;;;5033597;28;20187;-78
2022/09/28 03:08:41;;;;;;;41.20;39.07;;;9.00;99.90;;;;;;5033778;28;20210;-79
2022/09/28 03:11:27;;;;;;;46.77;44.37;;;8.90;99.90;;;;;;5034466;28;20186;-79
2022/09/28 03:13:54;;;;;;;25.33;24.07;;;9.00;99.90;;;;;;5038481;28;20668;-78
2022/09/28 03:16:20;;;;;;;13.50;12.47;;;9.00;99.90;;;;;;5042419;28;20321;-79
2022/09/28 03:18:47;;;;;;;10.37;9.63;;;9.00;99.90;;;;;;5036499;28;20226;-79
2022/09/28 03:21:14;;;;;;;10.07;9.23;;;9.10;99.90;;;;;;5045138;28;20187;-79
2022/09/28 03:23:40;;;;;;;10.23;9.53;;;9.20;99.90;;;;;;5033872;28;20214;-79
2022/09/28 03:26:07;;;;;;;12.87;12.03;;;9.20;99.90;;;;;;5038375;28;20206;-79
2022/09/28 03:28:35;;;;;;;10.13;9.53;;;9.30;99.90;;;;;;5038431;28;20288;-79
2022/09/28 03:31:01;;;;;;;10.70;9.87;;;9.30;99.90;;;;;;5035084;28;20680;-79
2022/09/28 03:33:27;;;;;;;6.20;5.20;;;9.30;99.90;;;;;;5033968;28;20187;-79
2022/09/28 03:35:53;;;;;;;10.13;9.50;;;9.40;99.90;;;;;;5045936;28;20241;-79
2022/09/28 03:38:19;;;;;;;18.53;17.20;;;9.40;99.90;;;;;;5034596;28;20825;-79
2022/09/28 03:40:56;;;;;;;17.57;16.50;;;9.40;99.90;;;;;;5033311;28;20202;-79
2022/09/28 03:43:24;;;;;;;18.53;17.23;;;9.50;99.90;;;;;;5033009;28;20228;-78
2022/09/28 03:45:54;;;;;;;14.40;13.47;;;9.50;99.90;;;;;;5033390;28;20182;-79
2022/09/28 03:48:28;;;;;;;13.43;12.43;;;9.50;99.90;;;;;;5036551;28;20207;-78
2022/09/28 03:50:56;;;;;;;16.30;15.17;;;9.60;99.90;;;;;;5038215;28;20209;-81
2022/09/28 03:53:22;;;;;;;15.47;14.30;;;9.60;99.90;;;;;;5033019;28;20817;-78
2022/09/28 03:55:49;;;;;;;9.10;8.50;;;9.60;99.90;;;;;;5036872;28;20209;-78
2022/09/28 03:58:19;;;;;;;11.27;10.27;;;9.60;99.90;;;;;;5056744;28;20226;-78
2022/09/28 04:00:45;;;;;;;15.10;13.80;;;9.60;99.90;;;;;;5056390;28;20167;-78
2022/09/28 04:03:11;;;;;;;7.60;7.00;;;9.60;99.90;;;;;;5040689;28;20217;-79
2022/09/28 04:05:37;;;;;;;8.57;7.80;;;9.70;99.90;;;;;;5037237;28;20270;-79
2022/09/28 04:08:02;;;;;;;8.67;8.07;;;9.70;99.90;;;;;;5034973;28;20191;-79
2022/09/28 04:10:28;;;;;;;10.23;9.47;;;9.70;99.90;;;;;;5034208;28;20189;-79
2022/09/28 04:12:55;;;;;;;20.20;19.07;;;9.70;99.90;;;;;;5034567;28;20175;-78
2022/09/28 04:15:21;;;;;;;44.77;42.50;;;9.80;99.90;;;;;;5032300;28;20702;-79
2022/09/28 04:17:47;;;;;;;26.70;25.10;;;9.70;99.90;;;;;;5053012;22;20230;-80
2022/09/28 04:20:13;;;;;;;65.17;61.50;;;9.80;99.90;;;;;;5010589;28;20250;-79
2022/09/28 04:22:39;;;;;;;15.10;14.23;;;9.70;99.90;;;;;;5010597;28;20175;-78
2022/09/28 04:25:05;;;;;;;54.17;50.20;;;9.60;99.90;;;;;;5011640;28;20195;-78
2022/09/28 04:30:16;;;;;;;14.73;13.87;;;9.30;99.90;;;;;;4994013;28;20595;-81
2022/09/28 04:32:42;;;;;;;14.73;13.93;;;9.20;99.90;;;;;;5009282;28;20279;-81
2022/09/28 04:35:10;;;;;;;6.13;5.83;;;9.20;99.90;;;;;;5012666;28;20254;-81
2022/09/28 04:37:36;;;;;;;9.90;9.33;;;9.10;99.90;;;;;;5011396;28;20249;-81
2022/09/28 04:40:02;;;;;;;29.50;28.00;;;9.10;99.90;;;;;;5012099;28;20203;-81
2022/09/28 04:42:28;;;;;;;11.93;11.30;;;9.10;99.90;;;;;;5012789;28;20183;-81
2022/09/28 04:44:56;;;;;;;15.40;14.50;;;9.10;99.90;;;;;;4992798;28;20575;-82
2022/09/28 04:47:22;;;;;;;19.93;19.00;;;9.10;99.90;;;;;;4973235;28;20184;-82
2022/09/28 04:49:48;;;;;;;24.07;22.77;;;9.10;99.90;;;;;;4975769;28;20256;-82
2022/09/28 04:52:13;;;;;;;39.67;37.23;;;9.10;99.90;;;;;;4982567;28;20192;-79
2022/09/28 04:54:39;;;;;;;60.33;57.43;;;9.10;99.90;;;;;;5001723;28;20226;-82
2022/09/28 04:57:05;;;;;;;82.30;78.00;;;9.10;99.90;;;;;;5012126;28;20233;-81
2022/09/28 04:59:32;;;;;;;63.37;60.20;;;9.10;99.90;;;;;;5016701;28;20211;-81
2022/09/28 05:01:58;;;;;;;89.00;84.73;;;9.10;99.90;;;;;;5036868;28;20595;-80
2022/09/28 05:04:24;;;;;;;123.77;117.63;;;9.10;99.90;;;;;;5014513;28;20183;-80
2022/09/28 05:06:49;;;;;;;77.43;73.47;;;9.10;99.90;;;;;;5017399;28;20274;-81
2022/09/28 05:09:15;;;;;;;38.20;36.37;;;9.00;99.90;;;;;;5017108;28;20211;-81
2022/09/28 05:11:41;;;;;;;9.43;8.83;;;9.00;99.90;;;;;;5016325;28;20214;-81
2022/09/28 05:14:07;;;;;;;25.47;24.20;;;9.10;99.90;;;;;;5008613;28;20216;-81
2022/09/28 05:16:34;;;;;;;88.90;84.17;;;9.10;99.90;;;;;;4999072;28;20188;-81
2022/09/28 05:19:00;;;;;;;48.23;45.80;;;9.10;99.90;;;;;;4996647;28;20216;-81
2022/09/28 05:21:26;;;;;;;20.43;19.13;;;9.10;99.90;;;;;;4997612;28;20238;-81
2022/09/28 05:23:54;;;;;;;7.33;6.77;;;9.10;99.90;;;;;;4996853;28;20275;-79
2022/09/28 05:26:21;;;;;;;7.90;7.20;;;9.10;99.90;;;;;;4994941;28;20185;-78
2022/09/28 05:28:47;;;;;;;13.07;12.23;;;9.10;99.90;;;;;;4998620;28;20261;-79
2022/09/28 05:31:13;;;;;;;9.60;8.97;;;9.10;99.90;;;;;;5008891;28;20661;-78
2022/09/28 05:33:39;;;;;;;10.83;10.13;;;9.10;99.90;;;;;;5006012;28;20671;-80
2022/09/28 05:36:08;;;;;;;10.50;8.57;;;9.20;99.90;;;;;;5014454;28;20183;-80
2022/09/28 05:38:34;;;;;;;8.27;6.50;;;9.20;99.90;;;;;;5014590;28;20216;-80
2022/09/28 05:41:00;;;;;;;6.93;6.40;;;9.20;99.90;;;;;;5014300;28;20176;-81
2022/09/28 05:43:25;;;;;;;12.83;11.83;;;9.20;99.90;;;;;;5012508;28;20253;-81
2022/09/28 05:45:51;;;;;;;18.20;17.13;;;9.30;99.90;;;;;;5011663;28;20183;-81
2022/09/28 05:48:17;;;;;;;29.20;27.10;;;9.30;99.90;;;;;;4997355;28;20205;-80
2022/09/28 05:50:43;;;;;;;19.60;18.23;;;9.30;99.90;;;;;;5007608;28;20676;-76
2022/09/28 05:53:09;;;;;;;17.50;16.07;;;9.30;99.90;;;;;;4996839;28;20181;-80
2022/09/28 05:55:36;;;;;;;30.50;28.40;;;9.30;99.90;;;;;;5021932;28;20180;-80
2022/09/28 05:58:05;;;;;;;23.17;21.97;;;9.30;99.90;;;;;;5035049;28;20228;-80
2022/09/28 06:00:32;;;;;;;17.03;16.10;;;9.30;99.90;;;;;;5013321;28;20180;-79
2022/09/28 06:03:06;;;;;;;19.37;18.00;;;9.30;99.90;;;;;;5021734;28;20195;-77
2022/09/28 06:05:35;;;;;;;27.70;26.03;;;9.30;99.90;;;;;;5001338;28;20577;-80
2022/09/28 06:08:03;;;;;;;15.83;14.50;;;9.30;99.90;;;;;;4977148;28;20194;-80
2022/09/28 06:10:29;;;;;;;16.63;15.63;;;9.30;99.90;;;;;;4974930;28;20284;-79
2022/09/28 06:12:55;;;;;;;11.37;10.57;;;9.30;99.90;;;;;;4974095;28;20201;-80
2022/09/28 06:15:22;;;;;;;30.43;28.63;;;9.40;99.90;;;;;;5006774;28;20187;-77
2022/09/28 06:18:00;;;;;;;38.70;36.63;;;9.40;99.90;;;;;;5012132;28;20214;-78
2022/09/28 06:20:29;;;;;;;32.70;30.53;;;9.40;99.90;;;;;;5012842;28;20206;-79
2022/09/28 06:22:55;;;;;;;26.37;24.97;;;9.40;99.90;;;;;;5013113;28;20183;-79
2022/09/28 06:25:22;;;;;;;15.93;14.87;;;9.40;99.90;;;;;;5014537;28;20192;-79
2022/09/28 06:27:56;;;;;;;14.73;13.80;;;9.40;99.90;;;;;;5010358;28;20184;-80
2022/09/28 06:30:25;;;;;;;15.67;14.37;;;9.50;99.90;;;;;;4994497;28;20195;-80
2022/09/28 06:32:56;;;;;;;10.20;9.60;;;9.50;99.90;;;;;;4993670;28;20188;-76
2022/09/28 06:35:23;;;;;;;5.30;5.00;;;9.50;99.90;;;;;;5009595;28;20195;-77
2022/09/28 06:37:49;;;;;;;9.13;8.63;;;9.50;99.90;;;;;;5012601;28;20208;-77
2022/09/28 06:40:15;;;;;;;7.10;6.60;;;9.50;99.90;;;;;;5013911;28;20717;-76
2022/09/28 06:42:41;;;;;;;6.10;5.60;;;9.50;99.90;;;;;;5013970;28;20175;-77
2022/09/28 06:45:07;;;;;;;6.07;5.47;;;9.50;99.90;;;;;;4995694;28;20205;-80
2022/09/28 06:47:34;;;;;;;6.03;5.53;;;9.50;99.90;;;;;;4976900;28;20259;-76
2022/09/28 06:50:00;;;;;;;6.57;6.03;;;9.50;99.90;;;;;;4991048;28;20206;-81
2022/09/28 06:52:26;;;;;;;7.13;6.70;;;9.60;99.90;;;;;;4996070;28;20168;-77
2022/09/28 06:54:51;;;;;;;6.17;5.83;;;9.60;99.90;;;;;;5012076;28;20180;-76
2022/09/28 06:57:18;;;;;;;9.33;6.17;;;9.60;99.90;;;;;;5012652;28;20184;-75
2022/09/28 06:59:43;;;;;;;6.37;5.87;;;9.60;99.90;;;;;;5028060;28;20219;-78
2022/09/28 07:02:13;;;;;;;6.30;5.80;;;9.50;99.90;;;;;;5013061;28;20234;-79
2022/09/28 07:04:42;;;;;;;5.80;5.30;;;9.60;99.90;;;;;;5019938;28;20235;-78
2022/09/28 07:07:09;;;;;;;5.67;5.13;;;9.60;99.90;;;;;;5022699;28;20183;-78
2022/09/28 07:09:35;;;;;;;7.03;6.43;;;9.50;99.90;;;;;;5011553;28;20200;-78
2022/09/28 07:12:03;;;;;;;6.53;5.90;;;9.50;99.90;;;;;;5012405;28;20813;-77
2022/09/28 07:14:32;;;;;;;8.00;7.17;;;9.60;99.90;;;;;;4998384;28;20274;-78
2022/09/28 07:16:58;;;;;;;30.67;28.80;;;9.60;99.90;;;;;;4973515;28;20185;-76
2022/09/28 07:19:24;;;;;;;63.53;60.47;;;9.60;99.90;;;;;;5006349;28;20769;-78
2022/09/28 07:21:53;;;;;;;53.80;50.63;;;9.70;99.90;;;;;;5008442;28;20251;-78
2022/09/28 07:24:19;;;;;;;65.00;61.60;;;9.70;99.90;;;;;;5001038;28;20560;-79
2022/09/28 07:26:45;;;;;;;29.33;27.43;;;9.70;99.90;;;;;;5000109;28;20172;-78
2022/09/28 07:29:12;;;;;;;82.67;78.27;;;9.70;99.90;;;;;;4995219;28;20215;-80
2022/09/28 07:31:39;;;;;;;70.23;66.47;;;9.70;99.90;;;;;;5001393;28;20192;-77
2022/09/28 07:34:05;;;;;;;38.30;36.07;;;9.60;99.90;;;;;;4999450;28;20190;-78
2022/09/28 07:36:33;;;;;;;32.13;30.50;;;9.70;99.90;;;;;;4996438;28;20208;-77
2022/09/28 07:39:00;;;;;;;46.37;43.67;;;9.80;99.90;;;;;;4993227;28;20279;-77
2022/09/28 07:41:32;;;;;;;41.03;38.73;;;9.90;99.90;;;;;;4995261;28;20172;-78
2022/09/28 07:44:04;;;;;;;47.77;45.07;;;10.00;99.90;;;;;;5008756;28;20596;-76
2022/09/28 07:46:35;;;;;;;63.10;59.03;;;10.20;99.90;;;;;;5011953;28;20184;-75
2022/09/28 07:49:04;;;;;;;45.10;42.50;;;10.50;99.90;;;;;;5011542;28;20614;-75
2022/09/28 07:51:31;;;;;;;68.80;65.20;;;10.60;99.90;;;;;;5011202;28;20180;-75
2022/09/28 07:53:58;;;;;;;7.10;6.53;;;10.80;99.90;;;;;;4994832;28;20653;-73
2022/09/28 07:56:25;;;;;;;20.23;18.60;;;11.00;99.90;;;;;;4992098;28;20176;-73
2022/09/28 07:58:51;;;;;;;15.97;14.97;;;11.10;99.90;;;;;;4991573;28;20294;-74
2022/09/28 08:01:17;;;;;;;15.13;14.17;;;11.00;99.90;;;;;;4990947;28;20260;-73
2022/09/28 08:03:45;;;;;;;28.67;27.07;;;11.00;99.90;;;;;;5004955;28;20183;-72
2022/09/28 08:06:12;;;;;;;21.10;19.23;;;10.90;99.90;;;;;;5011572;28;20176;-73
2022/09/28 08:08:43;;;;;;;12.17;11.37;;;10.80;99.90;;;;;;5011097;28;20211;-73
2022/09/28 08:11:14;;;;;;;8.90;8.10;;;10.80;99.90;;;;;;5011623;28;20187;-73
2022/09/28 08:13:41;;;;;;;10.97;9.80;;;10.50;99.90;;;;;;5013714;28;20278;-76
2022/09/28 08:16:07;;;;;;;55.63;51.73;;;10.50;99.90;;;;;;5016134;28;20175;-81
2022/09/28 08:18:34;;;;;;;11.00;10.03;;;10.50;99.90;;;;;;5014983;28;20218;-75
2022/09/28 08:23:46;;;;;;;27.90;25.83;;;10.70;99.90;;;;;;4996479;28;20295;-76
2022/09/28 08:26:12;;;;;;;33.00;30.90;;;10.90;99.90;;;;;;5010479;28;20667;-76
2022/09/28 08:28:38;;;;;;;28.23;26.57;;;11.20;99.90;;;;;;5011700;28;20216;-76
2022/09/28 08:31:06;;;;;;;14.10;13.13;;;11.40;99.90;;;;;;5012578;28;20179;-76
2022/09/28 08:33:33;;;;;;;26.17;24.63;;;11.70;99.90;;;;;;5000146;28;20275;-79
2022/09/28 08:36:00;;;;;;;40.30;37.97;;;11.80;99.90;;;;;;4998924;28;20267;-76
2022/09/28 08:38:28;;;;;;;10.83;10.23;;;11.90;99.90;;;;;;5009028;28;20220;-75
2022/09/28 08:41:03;;;;;;;26.50;24.93;;;11.90;99.90;;;;;;4994777;28;20176;-75
2022/09/28 08:43:52;;;;;;;25.33;24.03;;;11.80;99.90;;;;;;5007447;28;20179;-77
2022/09/28 08:46:22;;;;;;;21.37;20.17;;;11.60;99.90;;;;;;5015602;28;20176;-77
2022/09/28 08:48:56;;;;;;;18.63;17.47;;;11.40;99.90;;;;;;5030493;28;20293;-77
2022/09/28 08:51:41;;;;;;;13.77;12.50;;;11.30;99.90;;;;;;5012805;28;20186;-77
2022/09/28 08:54:27;;;;;;;22.03;20.87;;;11.30;99.90;;;;;;4975370;28;20721;-77
2022/09/28 08:57:00;;;;;;;14.27;13.20;;;11.40;99.90;;;;;;5002265;28;20570;-77
2022/09/28 08:59:39;;;;;;;10.80;9.70;;;11.70;99.90;;;;;;5015359;28;20230;-76
2022/09/28 09:02:15;;;;;;;32.87;31.13;;;11.90;99.90;;;;;;5011046;28;20662;-77
2022/09/28 09:04:41;;;;;;;55.07;52.17;;;12.00;99.90;;;;;;4997189;28;20183;-77
2022/09/28 09:07:15;;;;;;;48.47;45.77;;;12.10;99.90;;;;;;4994879;28;20176;-77
2022/09/28 09:10:11;;;;;;;36.20;34.40;;;12.40;99.90;;;;;;4996682;28;20239;-78
2022/09/28 09:12:59;;;;;;;14.00;13.10;;;12.70;99.90;;;;;;5003123;28;20270;-77
2022/09/28 09:15:42;;;;;;;6.00;5.67;;;12.90;99.90;;;;;;5013962;28;20188;-77
2022/09/28 09:18:35;;;;;;;9.17;8.43;;;12.90;99.90;;;;;;5013635;28;20333;-77
2022/09/28 09:21:27;;;;;;;48.43;45.87;;;12.90;99.90;;;;;;5018435;28;20203;-77
2022/09/28 09:23:55;;;;;;;63.40;60.23;;;12.90;99.90;;;;;;5001108;28;20195;-77
2022/09/28 09:26:38;;;;;;;70.17;66.43;;;12.90;99.90;;;;;;5015913;28;20179;-76
2022/09/28 09:29:10;;;;;;;61.67;58.27;;;13.20;99.90;;;;;;5026450;28;20230;-75
2022/09/28 09:32:06;;;;;;;11.73;11.03;;;13.50;99.90;;;;;;4995576;28;20180;-76
2022/09/28 09:35:19;;;;;;;12.17;11.47;;;13.60;99.90;;;;;;4995131;28;20239;-76
2022/09/28 09:38:05;;;;;;;12.97;12.27;;;13.80;99.90;;;;;;5005038;28;20202;-77
2022/09/28 09:41:03;;;;;;;23.27;21.97;;;14.00;99.90;;;;;;5005960;28;20180;-77
2022/09/28 09:43:45;;;;;;;14.50;13.80;;;14.20;99.90;;;;;;5008890;28;20330;-76
2022/09/28 09:46:28;;;;;;;14.90;14.03;;;14.20;99.90;;;;;;5004884;28;20186;-77
2022/09/28 09:49:01;;;;;;;15.13;14.10;;;14.10;99.90;;;;;;5011175;28;20701;-76
2022/09/28 09:51:37;;;;;;;10.80;10.10;;;14.20;99.90;;;;;;5007985;28;20203;-77
2022/09/28 09:54:14;;;;;;;6.40;5.90;;;14.30;99.90;;;;;;4998392;28;20278;-78
2022/09/28 09:56:46;;;;;;;6.20;5.80;;;13.90;99.90;;;;;;5015555;28;20624;-77
2022/09/28 09:59:17;;;;;;;5.30;4.80;;;13.80;99.90;;;;;;4997071;28;20226;-76
2022/09/28 10:01:44;;;;;;;6.00;5.50;;;13.90;99.90;;;;;;5000471;28;20212;-76
2022/09/28 10:04:39;;;;;;;6.33;5.73;;;14.00;99.90;;;;;;4989369;28;20279;-78
2022/09/28 10:07:11;;;;;;;4.53;4.23;;;14.10;99.90;;;;;;4994871;28;20650;-76
2022/09/28 10:09:47;;;;;;;6.60;5.13;;;14.10;99.90;;;;;;5002967;28;20212;-76
2022/09/28 10:12:18;;;;;;;7.40;6.90;;;14.00;99.90;;;;;;5000206;28;20188;-76
2022/09/28 10:14:45;;;;;;;7.50;6.80;;;13.80;99.90;;;;;;4994296;28;20283;-77
2022/09/28 10:17:15;;;;;;;7.10;6.57;;;13.70;99.90;;;;;;5011898;28;20191;-78
2022/09/28 10:19:42;;;;;;;7.50;6.80;;;13.60;99.90;;;;;;5029251;23;20231;-79
2022/09/28 10:22:18;;;;;;;10.30;9.40;;;13.50;99.90;;;;;;5014568;28;20187;-78
2022/09/28 10:24:47;;;;;;;10.27;9.57;;;13.60;99.90;;;;;;5014229;28;20262;-78
2022/09/28 10:27:18;;;;;;;8.60;7.90;;;13.60;99.90;;;;;;5015551;28;20596;-79
2022/09/28 10:30:13;;;;;;;8.00;7.47;;;13.70;99.90;;;;;;5014760;28;20211;-79
2022/09/28 10:32:47;;;;;;;6.60;6.20;;;13.40;99.90;;;;;;5014963;28;20183;-80
2022/09/28 10:35:24;;;;;;;11.40;10.53;;;13.40;99.90;;;;;;5013574;28;20731;-78
2022/09/28 10:37:53;;;;;;;6.00;5.70;;;13.20;99.90;;;;;;5013603;28;20190;-77
2022/09/28 10:40:47;;;;;;;8.93;8.43;;;13.40;99.90;;;;;;5013572;28;20219;-79
2022/09/28 10:43:21;;;;;;;5.40;5.10;;;13.70;99.90;;;;;;5014296;28;20227;-76
2022/09/28 10:45:48;;;;;;;7.90;7.30;;;13.80;99.90;;;;;;5011585;28;20183;-76
2022/09/28 10:48:20;;;;;;;8.00;7.30;;;13.80;99.90;;;;;;5011998;28;20187;-75
2022/09/28 10:51:05;;;;;;;7.30;7.00;;;14.00;99.90;;;;;;5010574;28;20187;-76
2022/09/28 10:53:35;;;;;;;9.27;8.47;;;14.00;99.90;;;;;;5011462;28;20218;-75
2022/09/28 10:56:26;;;;;;;9.03;8.37;;;13.80;99.90;;;;;;5011437;28;20188;-75
2022/09/28 10:58:52;;;;;;;7.53;7.13;;;13.60;99.90;;;;;;5014043;28;20246;-76
2022/09/28 11:01:29;;;;;;;7.70;7.30;;;13.70;99.90;;;;;;5011472;28;20607;-76
2022/09/28 11:03:57;;;;;;;14.03;12.83;;;13.80;99.90;;;;;;5011870;28;20186;-75
2022/09/28 11:06:28;;;;;;;9.50;8.67;;;14.00;99.90;;;;;;5011357;28;20723;-75
2022/09/28 11:09:01;;;;;;;9.67;9.10;;;14.00;99.90;;;;;;5010737;28;20198;-76
2022/09/28 11:11:28;;;;;;;10.00;9.30;;;13.90;99.90;;;;;;5011190;28;20195;-76
2022/09/28 11:14:02;;;;;;;10.60;9.90;;;13.90;99.90;;;;;;5012223;28;20203;-75
2022/09/28 11:16:31;;;;;;;8.90;8.40;;;13.80;99.90;;;;;;5011134;28;20200;-76
2022/09/28 11:19:02;;;;;;;13.77;12.87;;;13.80;99.90;;;;;;5011420;28;20235;-76
2022/09/28 11:21:31;;;;;;;12.20;11.57;;;13.80;99.90;;;;;;5013051;28;20187;-76
2022/09/28 11:24:06;;;;;;;11.83;10.53;;;13.70;99.90;;;;;;5010955;28;20182;-75
2022/09/28 11:26:39;;;;;;;11.00;9.90;;;13.80;99.90;;;;;;5012196;28;20262;-75
2022/09/28 11:29:06;;;;;;;11.97;11.27;;;13.90;99.90;;;;;;5010588;28;20212;-76
2022/09/28 11:31:34;;;;;;;11.17;10.53;;;14.20;99.90;;;;;;5010832;28;20183;-75
2022/09/28 11:34:13;;;;;;;11.90;11.20;;;14.30;99.90;;;;;;5011843;28;20267;-76
2022/09/28 11:36:52;;;;;;;9.60;8.77;;;14.20;99.90;;;;;;5011982;28;20190;-76
2022/09/28 11:39:31;;;;;;;9.70;7.87;;;14.10;99.90;;;;;;5010393;28;20221;-74
2022/09/28 11:42:11;;;;;;;7.30;4.83;;;14.00;99.90;;;;;;5011700;28;20183;-76
2022/09/28 11:44:45;;;;;;;6.93;6.00;;;13.90;99.90;;;;;;5010716;28;20179;-75
2022/09/28 11:47:14;;;;;;;9.50;8.07;;;14.10;99.90;;;;;;5011456;28;20222;-76
2022/09/28 11:49:49;;;;;;;5.40;5.10;;;14.40;99.90;;;;;;5011584;28;20204;-75
2022/09/28 11:52:20;;;;;;;8.13;7.53;;;14.80;99.90;;;;;;5012148;28;20229;-74
2022/09/28 11:55:00;;;;;;;10.97;10.00;;;15.00;99.90;;;;;;5013317;28;20233;-75
2022/09/28 11:57:35;;;;;;;12.93;12.33;;;15.10;99.90;;;;;;5014448;28;20198;-76
2022/09/28 12:00:04;;;;;;;9.13;8.57;;;15.00;99.90;;;;;;5012880;28;20218;-75
2022/09/28 12:02:55;;;;;;;5.47;5.07;;;15.10;99.90;;;;;;5010350;28;20215;-75
2022/09/28 12:05:30;;;;;;;5.27;4.80;;;15.30;99.90;;;;;;5010294;28;20183;-75
2022/09/28 12:08:03;;;;;;;5.57;5.17;;;14.90;99.90;;;;;;5011489;28;20541;-76
2022/09/28 12:10:50;;;;;;;5.73;5.33;;;14.80;99.90;;;;;;5011655;28;20283;-76
2022/09/28 12:13:22;;;;;;;5.83;5.40;;;15.20;99.90;;;;;;5011326;28;20190;-76
2022/09/28 12:16:07;;;;;;;7.37;6.83;;;15.60;99.90;;;;;;5010405;28;20235;-76
2022/09/28 12:18:53;;;;;;;13.90;12.87;;;15.90;99.90;;;;;;5011422;28;20219;-76
2022/09/28 12:21:31;;;;;;;30.10;28.47;;;16.30;99.90;;;;;;5011711;28;20194;-76
2022/09/28 12:24:06;;;;;;;26.23;24.53;;;16.40;99.90;;;;;;5011933;28;20186;-76
2022/09/28 12:26:50;;;;;;;27.30;25.70;;;16.40;99.90;;;;;;5010240;28;20675;-76
2022/09/28 12:29:39;;;;;;;26.93;25.27;;;16.10;99.90;;;;;;5011040;28;20282;-76
2022/09/28 12:32:13;;;;;;;17.37;16.40;;;16.30;99.90;;;;;;5010024;28;20190;-76
2022/09/28 12:34:42;;;;;;;26.63;25.23;;;16.20;99.90;;;;;;5010208;28;20552;-76
2022/09/28 12:37:35;;;;;;;26.33;24.87;;;16.50;99.90;;;;;;5011297;28;20641;-76
2022/09/28 12:40:28;;;;;;;24.50;23.20;;;16.70;99.90;;;;;;5011284;28;20243;-76
2022/09/28 12:43:27;;;;;;;22.73;21.10;;;17.20;99.90;;;;;;5009873;28;20187;-76
2022/09/28 12:46:11;;;;;;;12.60;11.37;;;17.80;99.90;;;;;;5010482;28;20211;-76
2022/09/28 12:49:01;;;;;;;8.80;8.30;;;17.90;99.90;;;;;;5010700;28;20207;-76
2022/09/28 12:51:52;;;;;;;6.10;5.60;;;17.60;99.90;;;;;;5010954;28;20183;-76
2022/09/28 12:54:35;;;;;;;5.70;5.30;;;17.60;99.90;;;;;;5010949;28;20188;-76
2022/09/28 12:57:52;;;;;;;4.07;3.77;;;18.40;99.90;;;;;;5010869;28;20409;-76
2022/09/28 13:00:21;;;;;;;5.47;3.47;;;17.90;99.90;;;;;;4987677;28;20273;-76
2022/09/28 13:03:30;;;;;;;3.73;3.57;;;17.50;99.90;;;;;;5009671;28;20226;-76
2022/09/28 13:06:24;;;;;;;5.03;4.63;;;17.00;99.90;;;;;;5011009;28;20188;-76
2022/09/28 13:09:25;;;;;;;5.03;4.17;;;16.60;99.90;;;;;;5010919;28;20274;-76
2022/09/28 13:12:13;;;;;;;3.83;3.57;;;16.20;99.90;;;;;;5010740;28;20180;-75
2022/09/28 13:15:07;;;;;;;3.77;3.57;;;16.40;99.90;;;;;;5010737;28;20278;-75